Apple Creek, MO

3:53 AM CST on November 27, 2014 (GMT -0600)
Southern Illinois | Change Station
CLOSE
Current Station
Airport
Location: Carbondale,
Elevation: 410 ft
Nearby Weather Stations

Elev 410 ft 37.78 °N, 89.25 °W | Updated 1 hour ago

Overcast
Overcast
33 °F
Feels Like 25 °F
N
10
Wind Variable Wind from North

Today
High -- | Low -- °F
--% Chance of Precip.
Yesterday
High -- | Low -- °F
Precip. -- in
6:50 AM 4:41 PM
Waxing Crescent, 28% visible
Pressure 30.29 in
Visibility 3.0 miles
Clouds Overcast 600 ft
Windchill 25 °F
Dew Point 31 °F
Humidity 92%
Rainfall 0.01 in
Snow Depth Not available.
UV 0 out of 12
Pollen .20 out of 12
Air Quality Not available.
Flu Activity Not available.
METAR KMDH 270852Z AUTO 36009KT 3SM BR OVC006 01/M01 A3028 RMK AO2 SLP255 60001 T00061006 53039

More Conditions Fewer Conditions

Pressure 30.29 in
Visibility 3.0 miles
Clouds Overcast 600 ft
Windchill 25 °F
Dew Point 31 °F
Humidity 92%
Rainfall 0.01 in
Snow Depth Not available.
UV 0 out of 12
Pollen .20 out of 12
Air Quality Not available.
Flu Activity Not available.
METAR KMDH 270852Z AUTO 36009KT 3SM BR OVC006 01/M01 A3028 RMK AO2 SLP255 60001 T00061006 53039

More Conditions Fewer Conditions

10-Day Weather Forecast

Almanac

Astronomy

Nov. 27, 2014 Rise Set
Actual Time
Civil Twilight
Nautical Twilight
Astronomical Twilight
Moon
Length of Visible Light
Length of Day
Tomorrow will be .
, % of the Moon is Illuminated

Today's Extremes

State Highs State Lows

Community

WunderPhotos

Upload Photos

1,773,965 photos uploaded!

WunderBlogs® & News

Nearby

Air Quality

  Air Quality AQ Index Pollutant
Not available.

Snow Depth

Station Depth Elevation

Earthquake Activity

City Distance Mag. Time & Date
Minimum magnitude displayed is 2.5.

Coastal Water Temperatures

Place Temperature

Nearby Weather Stations